createdAt,value
2023-03-13T05:07:58.612Z,14.68
2023-03-13T05:10:45.406Z,12.68
2023-03-13T05:13:44.834Z,12.73
2023-03-13T05:16:26.347Z,15.07
2023-03-13T05:19:12.612Z,11.60
2023-03-13T05:21:58.830Z,13.38
2023-03-13T05:24:46.396Z,8.95
2023-03-13T05:27:49.540Z,13.98
2023-03-13T05:30:36.278Z,10.43
2023-03-13T05:33:22.506Z,13.45
2023-03-13T05:36:28.457Z,16.58
2023-03-13T05:39:16.451Z,11.82
2023-03-13T05:41:49.569Z,12.02
2023-03-13T05:44:39.951Z,14.10
2023-03-13T05:47:18.338Z,14.52
2023-03-13T05:50:06.952Z,11.55
2023-03-13T05:52:39.274Z,15.48
2023-03-13T05:55:24.843Z,9.35
2023-03-13T05:58:18.140Z,11.55
2023-03-13T06:00:53.553Z,16.10
2023-03-13T06:03:41.068Z,14.18
2023-03-13T06:06:11.315Z,15.18
2023-03-13T06:08:48.986Z,14.07
2023-03-13T06:11:16.563Z,12.38
2023-03-13T06:13:44.044Z,12.23
2023-03-13T06:16:21.813Z,15.30
2023-03-13T06:18:50.273Z,13.75
2023-03-13T06:21:17.943Z,19.70
2023-03-13T06:23:45.185Z,10.90
2023-03-13T06:26:12.812Z,13.98
2023-03-13T06:28:40.239Z,18.10
2023-03-13T06:31:08.785Z,21.73
2023-03-13T06:33:37.183Z,24.48
2023-03-13T06:36:04.952Z,20.77
2023-03-13T06:38:32.274Z,19.83
2023-03-13T06:40:59.865Z,15.40
2023-03-13T06:43:28.148Z,15.93
2023-03-13T06:45:55.442Z,17.15
2023-03-13T06:48:23.476Z,19.70
2023-03-13T06:50:50.933Z,12.55
2023-03-13T06:53:20.237Z,15.43
2023-03-13T06:55:49.160Z,14.73
2023-03-13T06:58:30.988Z,14.38
2023-03-13T07:01:07.970Z,15.13
2023-03-13T07:03:36.575Z,19.50
2023-03-13T07:06:06.070Z,18.33
2023-03-13T07:08:34.020Z,18.50
2023-03-13T07:11:05.044Z,14.75
2023-03-13T07:13:33.095Z,14.15
2023-03-13T07:16:04.326Z,16.42
2023-03-13T07:18:33.280Z,24.20
2023-03-13T07:21:05.003Z,16.05
2023-03-13T07:23:33.798Z,28.98
2023-03-13T07:26:04.674Z,17.10
2023-03-13T07:28:34.482Z,18.35
2023-03-13T07:31:05.808Z,16.95
2023-03-13T07:33:33.497Z,21.80
2023-03-13T07:36:00.873Z,14.32
2023-03-13T07:38:28.314Z,15.13
2023-03-13T07:40:57.572Z,24.02
2023-03-13T07:43:25.863Z,12.27
2023-03-13T07:45:57.191Z,16.42
2023-03-13T07:48:33.272Z,18.13
2023-03-13T07:51:01.156Z,23.20
2023-03-13T07:53:29.134Z,13.88
2023-03-13T07:56:23.491Z,14.38
2023-03-13T07:58:51.867Z,17.38
2023-03-13T08:01:27.352Z,14.05
2023-03-13T08:03:56.581Z,16.73
2023-03-13T08:06:26.448Z,17.58
2023-03-13T08:08:57.827Z,10.65
2023-03-13T08:11:27.035Z,12.90
2023-03-13T08:13:55.208Z,14.75
2023-03-13T08:16:31.759Z,15.90
2023-03-13T08:19:00.337Z,10.38
2023-03-13T08:21:30.653Z,13.73
2023-03-13T08:24:00.133Z,18.98
2023-03-13T08:26:29.959Z,15.13
2023-03-13T08:29:02.733Z,13.85
2023-03-13T08:31:36.924Z,20.45
2023-03-13T08:34:05.237Z,15.18
2023-03-13T08:36:37.245Z,11.55
2023-03-13T08:39:07.773Z,17.65
2023-03-13T08:41:37.636Z,19.52
2023-03-13T08:44:05.528Z,17.80
2023-03-13T08:46:34.999Z,15.00
2023-03-13T08:49:05.234Z,19.33
2023-03-13T08:51:34.081Z,16.73
2023-03-13T08:54:04.013Z,16.55
2023-03-13T08:56:32.045Z,13.07
2023-03-13T08:59:01.394Z,16.02
2023-03-13T09:01:34.159Z,15.95
2023-03-13T09:04:04.511Z,14.52
2023-03-13T09:06:34.263Z,18.77
2023-03-13T09:09:02.373Z,16.00
2023-03-13T09:11:30.451Z,25.27
2023-03-13T09:14:00.896Z,19.20
2023-03-13T09:16:30.995Z,17.88
2023-03-13T09:19:00.263Z,17.40
2023-03-13T09:21:27.652Z,17.55
2023-03-13T09:23:55.059Z,20.65
2023-03-13T09:26:23.596Z,21.77
2023-03-13T09:28:55.138Z,21.95
2023-03-13T09:31:29.837Z,27.65
2023-03-13T09:33:57.569Z,15.85
2023-03-13T09:36:26.712Z,18.05
2023-03-13T09:38:56.750Z,19.48
2023-03-13T09:41:32.716Z,16.67
2023-03-13T09:44:19.540Z,14.18
2023-03-13T09:46:53.461Z,13.57
2023-03-13T09:49:30.257Z,13.32
2023-03-13T09:52:18.476Z,22.52
2023-03-13T09:54:52.396Z,16.27
2023-03-13T09:57:31.827Z,16.42
2023-03-13T10:00:12.599Z,14.20
2023-03-13T10:02:43.799Z,18.35
2023-03-13T10:05:19.375Z,16.30
2023-03-13T10:07:47.534Z,14.45
2023-03-13T10:10:24.828Z,13.13
2023-03-13T10:12:56.122Z,12.82
2023-03-13T10:15:43.088Z,10.88
2023-03-13T10:18:19.515Z,13.52
2023-03-13T10:20:50.324Z,16.05
2023-03-13T10:23:32.306Z,9.97
2023-03-13T10:25:59.962Z,13.55
2023-03-13T10:28:27.347Z,14.05
2023-03-13T10:31:09.490Z,10.55
2023-03-13T10:33:37.925Z,18.73
2023-03-13T10:36:14.622Z,17.70
2023-03-13T10:38:54.755Z,9.65
2023-03-13T10:41:31.825Z,13.77
2023-03-13T10:44:03.331Z,14.13
2023-03-13T10:46:34.042Z,21.25
2023-03-13T10:49:04.625Z,11.20
2023-03-13T10:51:38.915Z,14.60
2023-03-13T10:54:24.923Z,15.23
2023-03-13T10:57:07.735Z,16.02
2023-03-13T10:59:41.495Z,13.20
2023-03-13T11:02:19.768Z,19.77
2023-03-13T11:04:51.339Z,18.30
2023-03-13T11:07:35.169Z,19.27
2023-03-13T11:10:14.724Z,44.65
2023-03-13T11:12:47.728Z,20.23
2023-03-13T11:15:24.402Z,26.25
2023-03-13T11:18:15.833Z,18.70
2023-03-13T11:20:46.575Z,19.90
2023-03-13T11:23:30.786Z,18.47
2023-03-13T11:26:25.908Z,18.08
2023-03-13T11:29:02.595Z,20.83
2023-03-13T11:31:39.315Z,38.45
2023-03-13T11:34:27.677Z,22.52
2023-03-13T11:37:16.196Z,13.55
2023-03-13T11:39:49.744Z,16.80
2023-03-13T11:42:45.152Z,23.75
2023-03-13T11:45:45.196Z,76.40
2023-03-13T11:48:41.861Z,26.15
2023-03-13T11:51:14.293Z,17.77
2023-03-13T11:54:00.850Z,19.75
2023-03-13T11:56:39.169Z,16.88
2023-03-13T11:59:25.251Z,20.70
2023-03-13T12:02:25.339Z,16.40
2023-03-13T12:04:58.623Z,15.27
2023-03-13T12:07:49.283Z,12.98
2023-03-13T12:10:26.011Z,24.30
2023-03-13T12:13:06.296Z,46.05
2023-03-13T12:15:47.582Z,11.25
2023-03-13T12:18:24.630Z,13.75
2023-03-13T12:21:03.021Z,12.40
2023-03-13T12:23:39.366Z,19.50
2023-03-13T12:26:16.280Z,15.35
2023-03-13T12:29:16.100Z,13.90
2023-03-13T12:32:21.603Z,16.40
2023-03-13T12:35:18.566Z,15.15
2023-03-13T12:38:16.277Z,10.43
2023-03-13T12:40:53.100Z,8.85
2023-03-13T12:43:25.679Z,21.02
2023-03-13T12:45:59.990Z,11.25
2023-03-13T12:49:05.002Z,14.68
2023-03-13T12:52:03.078Z,11.05
2023-03-13T12:54:39.604Z,13.32
2023-03-13T12:57:32.231Z,17.80
2023-03-13T13:00:05.788Z,12.18
2023-03-13T13:02:33.240Z,15.60
2023-03-13T13:05:03.121Z,12.77
2023-03-13T13:07:35.174Z,10.13
2023-03-13T13:10:19.128Z,17.50
2023-03-13T13:13:07.904Z,12.43
2023-03-13T13:15:35.762Z,11.60
2023-03-13T13:18:16.334Z,12.23
2023-03-13T13:21:15.569Z,14.60
2023-03-13T13:23:48.258Z,9.18
2023-03-13T13:26:30.677Z,9.05
2023-03-13T13:29:19.141Z,9.27
2023-03-13T13:31:51.099Z,10.75
2023-03-13T13:34:28.053Z,12.43
2023-03-13T13:36:57.193Z,9.23
2023-03-13T13:39:43.556Z,12.30
2023-03-13T13:42:29.809Z,13.30
2023-03-13T13:45:16.503Z,10.20
2023-03-13T13:47:46.863Z,11.95
2023-03-13T13:50:21.016Z,9.85
2023-03-13T13:52:50.594Z,11.85
2023-03-13T13:55:40.296Z,16.80
2023-03-13T13:58:24.554Z,9.65
2023-03-13T14:01:06.982Z,16.73
2023-03-13T14:03:36.671Z,5.70
2023-03-13T14:06:17.926Z,15.60
2023-03-13T14:08:48.856Z,14.32
2023-03-13T14:11:28.234Z,8.02
2023-03-13T14:14:15.708Z,9.98
2023-03-13T14:16:46.414Z,11.27
2023-03-13T14:19:30.956Z,8.23
2023-03-13T14:22:03.457Z,37.80
2023-03-13T14:24:31.235Z,15.73
2023-03-13T14:26:58.971Z,12.13
2023-03-13T14:29:27.127Z,12.57
2023-03-13T14:32:00.090Z,11.90
2023-03-13T14:34:30.403Z,11.80
2023-03-13T14:37:17.235Z,13.30
2023-03-13T14:39:48.860Z,9.23
2023-03-13T14:42:18.304Z,22.15
2023-03-13T14:44:50.133Z,13.38
2023-03-13T14:47:20.761Z,12.93
2023-03-13T14:49:48.830Z,10.68
2023-03-13T14:52:27.281Z,14.80
2023-03-13T14:55:04.426Z,11.48
2023-03-13T14:57:36.280Z,16.15
2023-03-13T15:00:31.824Z,15.45
2023-03-13T15:03:16.724Z,13.63
2023-03-13T15:06:03.130Z,9.20
2023-03-13T15:08:30.639Z,14.27
2023-03-13T15:10:58.673Z,13.32
2023-03-13T15:13:38.434Z,36.28
2023-03-13T15:16:20.178Z,11.70
2023-03-13T15:21:19.487Z,15.18
2023-03-13T15:23:56.166Z,20.00
2023-03-13T15:26:24.794Z,16.75
2023-03-13T15:28:52.693Z,19.73
2023-03-13T15:31:23.836Z,16.27
2023-03-13T15:33:56.940Z,17.13
2023-03-13T15:36:26.971Z,20.55
2023-03-13T15:38:55.072Z,10.88
2023-03-13T15:41:22.789Z,14.82
2023-03-13T15:43:55.288Z,20.55
2023-03-13T15:46:25.794Z,16.77
2023-03-13T15:48:53.982Z,16.10
2023-03-13T15:51:21.435Z,16.13
2023-03-13T15:53:48.826Z,15.23
2023-03-13T15:56:19.844Z,12.07
2023-03-13T15:58:49.250Z,18.67
2023-03-13T16:01:18.431Z,13.07
2023-03-13T16:03:46.598Z,24.20
2023-03-13T16:06:20.514Z,19.00
2023-03-13T16:08:47.941Z,19.58
2023-03-13T16:11:16.983Z,13.93
2023-03-13T16:13:44.813Z,13.63
2023-03-13T16:16:23.313Z,13.07
2023-03-13T16:18:53.518Z,13.75
2023-03-13T16:21:33.245Z,17.80
2023-03-13T16:24:00.584Z,18.67
2023-03-13T16:26:31.207Z,21.85
2023-03-13T16:28:59.495Z,18.60
2023-03-13T16:31:29.971Z,19.92
2023-03-13T16:33:58.822Z,18.83
2023-03-13T16:36:31.036Z,15.43
2023-03-13T16:39:09.010Z,19.02
2023-03-13T16:41:37.513Z,17.50
2023-03-13T16:44:05.054Z,17.30
2023-03-13T16:46:37.728Z,17.58
2023-03-13T16:49:06.209Z,17.00
2023-03-13T16:51:33.758Z,20.92
2023-03-13T16:54:01.151Z,20.90
2023-03-13T16:56:30.378Z,26.77
2023-03-13T16:58:58.453Z,20.45
2023-03-13T17:01:26.292Z,29.98
2023-03-13T17:03:53.688Z,36.05
2023-03-13T17:06:24.397Z,26.02
2023-03-13T17:08:52.177Z,21.50
2023-03-13T17:11:21.544Z,16.30
2023-03-13T17:13:51.595Z,21.08
2023-03-13T17:16:21.998Z,17.17
2023-03-13T17:18:52.490Z,20.33
2023-03-13T17:21:26.281Z,21.95
2023-03-13T17:23:55.359Z,25.30
2023-03-13T17:26:28.083Z,25.50
2023-03-13T17:28:57.859Z,31.80
2023-03-13T17:31:26.921Z,38.13
2023-03-13T17:33:54.497Z,37.53
2023-03-13T17:36:28.617Z,38.92
2023-03-13T17:38:58.651Z,47.70
2023-03-13T17:41:28.545Z,39.33
2023-03-13T17:43:56.587Z,36.65
2023-03-13T17:46:25.382Z,34.03
2023-03-13T17:48:54.052Z,37.00
2023-03-13T17:51:24.554Z,35.58
2023-03-13T17:53:53.432Z,39.65
2023-03-13T17:56:32.178Z,43.47
2023-03-13T17:59:00.975Z,35.28
2023-03-13T18:01:31.343Z,42.03
2023-03-13T18:03:59.267Z,30.00
2023-03-13T18:06:29.353Z,36.10
2023-03-13T18:09:08.048Z,36.63
2023-03-13T18:11:37.757Z,37.53
2023-03-13T18:14:06.109Z,33.80
2023-03-13T18:16:42.873Z,45.50
2023-03-13T18:19:22.805Z,40.33
2023-03-13T18:21:52.964Z,27.25
2023-03-13T18:24:20.819Z,26.63
2023-03-13T18:26:49.706Z,23.90
2023-03-13T18:29:29.128Z,22.42
2023-03-13T18:32:00.340Z,36.88
2023-03-13T18:34:28.895Z,38.20
2023-03-13T18:37:03.500Z,32.47
2023-03-13T18:39:32.362Z,28.63
2023-03-13T18:42:01.948Z,28.98
2023-03-13T18:44:29.254Z,40.63
2023-03-13T18:46:56.503Z,49.35
2023-03-13T18:49:24.732Z,41.85
2023-03-13T18:51:53.921Z,26.65
2023-03-13T18:54:21.340Z,36.15
2023-03-13T18:56:48.670Z,33.33
2023-03-13T18:59:20.879Z,27.33
2023-03-13T19:01:48.983Z,45.03
2023-03-13T19:04:16.666Z,36.88
2023-03-13T19:06:48.244Z,30.70
2023-03-13T19:09:42.157Z,27.48
2023-03-13T19:12:08.197Z,33.03
2023-03-13T19:14:35.586Z,29.55
2023-03-13T19:17:07.318Z,26.73
2023-03-13T19:19:35.287Z,28.27
2023-03-13T19:22:02.773Z,26.50
2023-03-13T19:24:30.119Z,30.38
2023-03-13T19:27:00.361Z,23.45
2023-03-13T19:29:29.225Z,29.85
2023-03-13T19:31:56.792Z,21.92
2023-03-13T19:34:24.620Z,30.58
2023-03-13T19:36:53.452Z,47.88
2023-03-13T19:39:23.928Z,21.40
2023-03-13T19:41:53.385Z,31.42
2023-03-13T19:44:21.740Z,22.90
2023-03-13T19:46:49.325Z,23.25
2023-03-13T19:49:19.688Z,24.17
2023-03-13T19:51:47.992Z,23.33
2023-03-13T19:54:16.108Z,22.35
2023-03-13T19:56:46.853Z,24.92
2023-03-13T19:59:23.323Z,20.55
2023-03-13T20:01:51.152Z,30.02
2023-03-13T20:04:18.474Z,39.67
2023-03-13T20:06:45.834Z,28.95
2023-03-13T20:09:16.539Z,32.92
2023-03-13T20:11:44.568Z,29.80
2023-03-13T20:14:12.870Z,17.58
2023-03-13T20:16:40.644Z,21.55
2023-03-13T20:19:08.580Z,22.75
2023-03-13T20:21:41.143Z,22.73
2023-03-13T20:24:09.976Z,23.85
2023-03-13T20:26:37.290Z,31.23
2023-03-13T20:29:05.291Z,23.95
2023-03-13T20:31:32.880Z,24.92
2023-03-13T20:34:01.009Z,24.35
2023-03-13T20:36:28.883Z,27.77
2023-03-13T20:38:57.255Z,27.75
2023-03-13T20:41:31.098Z,26.80
2023-03-13T20:43:59.101Z,22.83
2023-03-13T20:46:27.008Z,21.67
2023-03-13T20:48:55.840Z,24.85
2023-03-13T20:51:24.994Z,24.52
2023-03-13T20:53:52.375Z,22.30
2023-03-13T20:56:19.723Z,27.17
2023-03-13T20:58:46.973Z,24.27
2023-03-13T21:01:15.367Z,23.50
2023-03-13T21:03:43.302Z,21.98
2023-03-13T21:06:17.474Z,20.45
2023-03-13T21:08:46.105Z,22.25
2023-03-13T21:11:14.890Z,24.58
2023-03-13T21:13:42.289Z,24.25
2023-03-13T21:16:10.583Z,24.15
2023-03-13T21:18:37.989Z,30.33
2023-03-13T21:21:07.834Z,27.73
2023-03-13T21:23:36.074Z,28.83
2023-03-13T21:26:03.972Z,24.92
2023-03-13T21:28:31.802Z,22.10
2023-03-13T21:31:06.966Z,22.92
2023-03-13T21:33:34.423Z,21.00
2023-03-13T21:36:01.827Z,20.80
2023-03-13T21:38:29.227Z,24.42
2023-03-13T21:40:58.354Z,19.95
2023-03-13T21:43:28.207Z,18.48
2023-03-13T21:45:56.908Z,19.45
2023-03-13T21:48:24.786Z,26.05
2023-03-13T21:50:53.933Z,18.60
2023-03-13T21:53:21.834Z,28.08
2023-03-13T21:55:50.694Z,20.63
2023-03-13T21:58:19.056Z,23.08
2023-03-13T22:00:46.342Z,25.02
2023-03-13T22:03:14.749Z,24.65
2023-03-13T22:05:43.637Z,24.55
2023-03-13T22:08:11.582Z,24.33
2023-03-13T22:10:39.933Z,17.25
2023-03-13T22:13:09.664Z,19.77
2023-03-13T22:15:37.451Z,23.15
2023-03-13T22:18:05.238Z,28.70
2023-03-13T22:20:32.552Z,22.40
2023-03-13T22:22:59.902Z,22.15
2023-03-13T22:25:27.206Z,25.05
2023-03-13T22:27:54.457Z,23.58
2023-03-13T22:30:22.240Z,19.35
2023-03-13T22:32:49.695Z,20.38
2023-03-13T22:35:18.617Z,22.60
2023-03-13T22:37:46.250Z,21.15
2023-03-13T22:40:14.188Z,22.27
2023-03-13T22:42:41.686Z,25.63
2023-03-13T22:45:09.495Z,22.83
2023-03-13T22:47:36.850Z,19.85
2023-03-13T22:50:04.546Z,26.05
2023-03-13T22:52:33.372Z,26.88
2023-03-13T22:55:01.042Z,24.20
2023-03-13T22:57:29.258Z,24.55
2023-03-13T22:59:59.111Z,23.65
2023-03-13T23:02:28.140Z,21.75
2023-03-13T23:04:57.830Z,24.77
2023-03-13T23:07:28.468Z,22.30
2023-03-13T23:09:56.232Z,21.73
2023-03-13T23:12:24.368Z,18.45
2023-03-13T23:14:52.806Z,18.83
2023-03-13T23:17:20.542Z,23.10
2023-03-13T23:19:48.410Z,30.13
2023-03-13T23:22:18.032Z,19.80
2023-03-13T23:24:45.481Z,22.00
2023-03-13T23:27:13.206Z,15.80
2023-03-13T23:29:40.459Z,17.13
2023-03-13T23:32:07.761Z,22.67
2023-03-13T23:34:35.827Z,17.58
2023-03-13T23:37:03.403Z,14.13
2023-03-13T23:39:31.716Z,16.23
2023-03-13T23:41:59.456Z,18.92
2023-03-13T23:44:30.804Z,15.07
2023-03-13T23:46:58.310Z,16.40
2023-03-13T23:49:26.130Z,14.93
2023-03-13T23:51:53.489Z,15.15
2023-03-13T23:54:21.472Z,15.50
2023-03-13T23:56:48.738Z,17.67
2023-03-13T23:59:16.116Z,13.63
